Time;durP1;ratioP1;P1;durP2;ratioP2;P2;SDS_P1;SDS_P2;PMS_P1;PMS_P2;Temp;Humidity;BMP_temperature;BMP_pressure;BME280_temperature;BME280_humidity;BME280_pressure;Samples;Min_cycle;Max_cycle;Signal;HPM_P1;HPM_P2
2021/06/14 00:00:35;;;;;;;8.47;6.00;;;;;;;;;;5053170;28;20799;-75
2021/06/14 00:03:01;;;;;;;8.10;6.20;;;;;;;;;;5052708;28;20442;-74
2021/06/14 00:05:42;;;;;;;9.07;6.55;;;;;;;;;;5053476;28;20824;-74
2021/06/14 00:08:10;;;;;;;6.20;5.60;;;;;;;;;;5064563;28;20172;-76
2021/06/14 00:10:36;;;;;;;10.10;6.67;;;;;;;;;;5073119;28;20857;-76
2021/06/14 00:13:03;;;;;;;7.72;6.38;;;;;;;;;;5057690;28;20500;-75
2021/06/14 00:15:29;;;;;;;6.83;5.80;;;;;;;;;;5053096;28;20181;-75
2021/06/14 00:17:56;;;;;;;6.07;5.45;;;;;;;;;;5052904;28;20412;-75
2021/06/14 00:20:23;;;;;;;6.27;5.67;;;;;;;;;;5053164;28;20181;-74
2021/06/14 00:22:49;;;;;;;7.65;5.57;;;;;;;;;;5052728;28;20772;-76
2021/06/14 00:25:17;;;;;;;7.93;5.90;;;;;;;;;;5052872;28;20193;-75
2021/06/14 00:27:43;;;;;;;8.40;6.40;;;;;;;;;;5054468;28;20412;-75
2021/06/14 00:30:09;;;;;;;7.27;6.10;;;;;;;;;;5052850;28;20553;-75
2021/06/14 00:32:36;;;;;;;8.27;6.40;;;;;;;;;;5052852;28;20426;-75
2021/06/14 00:35:02;;;;;;;7.27;5.77;;;;;;;;;;5052396;28;20433;-75
2021/06/14 00:37:28;;;;;;;6.40;5.63;;;;;;;;;;5053187;28;20513;-75
2021/06/14 00:39:54;;;;;;;7.70;6.10;;;;;;;;;;5052769;28;20439;-76
2021/06/14 00:42:20;;;;;;;7.07;5.57;;;;;;;;;;5052955;28;20485;-76
2021/06/14 00:44:46;;;;;;;6.50;5.43;;;;;;;;;;5057146;28;20454;-75
2021/06/14 00:47:12;;;;;;;9.80;6.50;;;;;;;;;;5059399;28;20420;-76
2021/06/14 00:49:38;;;;;;;11.43;6.40;;;;;;;;;;5052318;28;20407;-75
2021/06/14 00:52:05;;;;;;;6.70;6.05;;;;;;;;;;5052464;28;20427;-74
2021/06/14 00:54:31;;;;;;;7.50;6.07;;;;;;;;;;5052720;28;20572;-73
2021/06/14 00:56:57;;;;;;;7.20;6.17;;;;;;;;;;5052471;28;20188;-75
2021/06/14 00:59:23;;;;;;;9.48;5.70;;;;;;;;;;5052256;28;20498;-75
2021/06/14 01:01:49;;;;;;;6.88;5.63;;;;;;;;;;5052381;28;20203;-76
2021/06/14 01:04:15;;;;;;;6.60;6.00;;;;;;;;;;5052302;28;20496;-75
2021/06/14 01:06:41;;;;;;;7.70;5.50;;;;;;;;;;5052921;28;20467;-74
2021/06/14 01:09:07;;;;;;;6.60;5.97;;;;;;;;;;5072325;28;20413;-74
2021/06/14 01:11:46;;;;;;;7.63;5.90;;;;;;;;;;5069735;28;20537;-73
2021/06/14 01:14:30;;;;;;;6.57;5.97;;;;;;;;;;5054500;28;20532;-75
2021/06/14 01:17:06;;;;;;;6.70;5.80;;;;;;;;;;5054974;28;20923;-75
2021/06/14 01:19:50;;;;;;;5.50;5.10;;;;;;;;;;5055954;28;20408;-75
2021/06/14 01:22:35;;;;;;;5.70;5.20;;;;;;;;;;5064270;28;20188;-74
2021/06/14 01:25:10;;;;;;;6.53;5.03;;;;;;;;;;5075491;28;20457;-75
2021/06/14 01:27:38;;;;;;;6.17;5.57;;;;;;;;;;5075890;28;20418;-75
2021/06/14 01:30:08;;;;;;;6.25;5.10;;;;;;;;;;5057062;28;20465;-75
2021/06/14 01:32:36;;;;;;;7.33;5.87;;;;;;;;;;5055684;28;20693;-74
2021/06/14 01:35:03;;;;;;;7.25;5.70;;;;;;;;;;5055605;28;20783;-76
2021/06/14 01:37:29;;;;;;;6.23;5.60;;;;;;;;;;5055766;28;20520;-76
2021/06/14 01:39:57;;;;;;;6.03;5.40;;;;;;;;;;5055519;28;20419;-75
2021/06/14 01:42:23;;;;;;;7.67;5.30;;;;;;;;;;5055785;28;20454;-74
2021/06/14 01:44:49;;;;;;;8.68;5.70;;;;;;;;;;5060667;28;20454;-75
2021/06/14 01:47:16;;;;;;;7.25;5.80;;;;;;;;;;5061507;28;20523;-75
2021/06/14 01:49:42;;;;;;;6.38;5.32;;;;;;;;;;5055115;28;20169;-74
2021/06/14 01:52:08;;;;;;;5.95;5.00;;;;;;;;;;5055110;28;20196;-74
2021/06/14 01:54:35;;;;;;;7.68;5.78;;;;;;;;;;5055180;28;20247;-76
2021/06/14 01:57:02;;;;;;;6.80;5.00;;;;;;;;;;5055147;28;20176;-74
2021/06/14 01:59:30;;;;;;;7.50;5.28;;;;;;;;;;5055323;28;20469;-75
2021/06/14 02:01:57;;;;;;;9.43;5.70;;;;;;;;;;5055264;28;20203;-75
2021/06/14 02:04:23;;;;;;;5.90;5.30;;;;;;;;;;5054649;28;20646;-75
2021/06/14 02:06:50;;;;;;;6.13;5.20;;;;;;;;;;5057039;28;20427;-76
2021/06/14 02:09:20;;;;;;;5.33;4.90;;;;;;;;;;5074694;28;20411;-74
2021/06/14 02:11:48;;;;;;;5.70;5.20;;;;;;;;;;5074137;28;20431;-75
2021/06/14 02:14:25;;;;;;;8.63;5.40;;;;;;;;;;5053351;28;20188;-74
2021/06/14 02:16:51;;;;;;;6.97;5.90;;;;;;;;;;5054740;28;20776;-75
2021/06/14 02:19:17;;;;;;;7.03;5.88;;;;;;;;;;5055078;28;20553;-75
2021/06/14 02:21:44;;;;;;;7.30;5.60;;;;;;;;;;5054391;28;20221;-75
2021/06/14 02:24:12;;;;;;;5.60;5.10;;;;;;;;;;5054710;28;20176;-75
2021/06/14 02:26:38;;;;;;;7.88;6.15;;;;;;;;;;5053509;28;20581;-75
2021/06/14 02:29:04;;;;;;;7.70;5.40;;;;;;;;;;5055769;28;20180;-74
2021/06/14 02:31:31;;;;;;;7.10;6.13;;;;;;;;;;5054418;28;20640;-75
2021/06/14 02:33:57;;;;;;;9.13;5.72;;;;;;;;;;5054545;28;20180;-74
2021/06/14 02:36:23;;;;;;;6.57;5.97;;;;;;;;;;5054448;28;20173;-74
2021/06/14 02:38:49;;;;;;;6.60;5.60;;;;;;;;;;5054401;28;20731;-75
2021/06/14 02:41:15;;;;;;;6.10;5.50;;;;;;;;;;5054391;28;20260;-74
2021/06/14 02:43:42;;;;;;;7.57;5.78;;;;;;;;;;5054203;28;20177;-74
2021/06/14 02:46:11;;;;;;;7.20;5.53;;;;;;;;;;5064538;28;20724;-76
2021/06/14 02:48:39;;;;;;;8.60;5.78;;;;;;;;;;5054062;28;20508;-74
2021/06/14 02:51:06;;;;;;;7.32;6.00;;;;;;;;;;5054147;28;20196;-74
2021/06/14 02:53:32;;;;;;;7.38;5.80;;;;;;;;;;5053936;28;20304;-75
2021/06/14 02:56:09;;;;;;;6.93;6.22;;;;;;;;;;5053983;28;20237;-74
2021/06/14 02:58:40;;;;;;;6.80;6.10;;;;;;;;;;5054085;28;20185;-76
2021/06/14 03:01:07;;;;;;;7.30;6.10;;;;;;;;;;5053964;28;20200;-76
2021/06/14 03:03:35;;;;;;;6.70;5.90;;;;;;;;;;5053886;28;20246;-75
2021/06/14 03:06:01;;;;;;;8.38;5.85;;;;;;;;;;5053651;28;20233;-77
2021/06/14 03:08:28;;;;;;;7.15;6.10;;;;;;;;;;5069294;28;20177;-74
2021/06/14 03:10:55;;;;;;;7.28;6.47;;;;;;;;;;5073761;28;20216;-75
2021/06/14 03:13:21;;;;;;;7.25;6.22;;;;;;;;;;5055978;28;20568;-74
2021/06/14 03:15:47;;;;;;;6.55;5.80;;;;;;;;;;5053726;28;20227;-76
2021/06/14 03:18:14;;;;;;;7.78;5.85;;;;;;;;;;5053953;28;20302;-73
2021/06/14 03:20:41;;;;;;;7.25;5.90;;;;;;;;;;5053905;28;20491;-73
2021/06/14 03:23:10;;;;;;;10.30;6.65;;;;;;;;;;5053789;28;20177;-75
2021/06/14 03:25:37;;;;;;;9.02;7.00;;;;;;;;;;5053724;28;20254;-74
2021/06/14 03:28:05;;;;;;;7.07;6.35;;;;;;;;;;5055239;28;20200;-76
2021/06/14 03:30:32;;;;;;;7.40;6.57;;;;;;;;;;5053648;28;20208;-75
2021/06/14 03:32:59;;;;;;;6.25;5.57;;;;;;;;;;5053618;28;20184;-74
2021/06/14 03:35:25;;;;;;;8.38;4.97;;;;;;;;;;5053786;28;20177;-76
2021/06/14 03:37:51;;;;;;;9.82;5.93;;;;;;;;;;5052857;28;20177;-75
2021/06/14 03:40:18;;;;;;;11.70;6.30;;;;;;;;;;5053444;28;20233;-73
2021/06/14 03:42:44;;;;;;;6.70;4.90;;;;;;;;;;5053369;28;20423;-75
2021/06/14 03:45:11;;;;;;;5.68;5.07;;;;;;;;;;5061600;28;20446;-75
2021/06/14 03:47:38;;;;;;;6.97;5.85;;;;;;;;;;5056542;28;20173;-73
2021/06/14 03:50:05;;;;;;;7.30;6.13;;;;;;;;;;5053583;28;20191;-74
2021/06/14 03:52:31;;;;;;;6.20;5.60;;;;;;;;;;5053199;28;20489;-75
2021/06/14 03:54:58;;;;;;;6.73;5.93;;;;;;;;;;5052272;28;20920;-75
2021/06/14 03:57:24;;;;;;;6.30;5.33;;;;;;;;;;5053297;28;20411;-73
2021/06/14 03:59:50;;;;;;;6.20;5.17;;;;;;;;;;5063384;28;20410;-74
2021/06/14 04:02:16;;;;;;;6.83;5.33;;;;;;;;;;5060304;28;20434;-73
2021/06/14 04:04:52;;;;;;;6.67;6.00;;;;;;;;;;5072677;28;20421;-73
2021/06/14 04:07:18;;;;;;;7.20;6.50;;;;;;;;;;5074188;28;20479;-75
2021/06/14 04:09:44;;;;;;;7.30;6.10;;;;;;;;;;5073331;28;20435;-75
2021/06/14 04:12:10;;;;;;;6.90;6.20;;;;;;;;;;5065098;28;20891;-74
2021/06/14 04:14:38;;;;;;;6.73;6.10;;;;;;;;;;5052788;28;20407;-75
2021/06/14 04:17:04;;;;;;;8.20;6.67;;;;;;;;;;5052987;28;20431;-75
2021/06/14 04:19:30;;;;;;;7.03;6.20;;;;;;;;;;5053131;28;20395;-73
2021/06/14 04:21:57;;;;;;;9.00;6.43;;;;;;;;;;5053336;28;20776;-74
2021/06/14 04:24:23;;;;;;;9.17;6.30;;;;;;;;;;5053349;28;20491;-74
2021/06/14 04:26:49;;;;;;;11.83;7.60;;;;;;;;;;5052775;28;21284;-76
2021/06/14 04:29:18;;;;;;;9.67;6.30;;;;;;;;;;5053972;28;20442;-74
2021/06/14 04:31:47;;;;;;;10.97;6.87;;;;;;;;;;5059843;28;20430;-74
2021/06/14 04:34:14;;;;;;;7.30;6.57;;;;;;;;;;5072799;28;20852;-75
2021/06/14 04:36:40;;;;;;;8.70;6.70;;;;;;;;;;5073072;28;20483;-72
2021/06/14 04:39:06;;;;;;;9.87;7.83;;;;;;;;;;5072726;28;20934;-76
2021/06/14 04:41:32;;;;;;;9.90;6.57;;;;;;;;;;5072832;28;20861;-75
2021/06/14 04:43:59;;;;;;;8.87;6.67;;;;;;;;;;5071437;28;20504;-74
2021/06/14 04:46:25;;;;;;;11.93;6.50;;;;;;;;;;5065709;28;20444;-75
2021/06/14 04:48:51;;;;;;;9.23;6.80;;;;;;;;;;5054044;28;20411;-74
2021/06/14 04:51:17;;;;;;;7.23;6.43;;;;;;;;;;5056547;28;20431;-73
2021/06/14 04:53:43;;;;;;;7.77;5.67;;;;;;;;;;5056191;28;20407;-74
2021/06/14 04:56:09;;;;;;;6.97;5.30;;;;;;;;;;5055185;28;21018;-74
2021/06/14 04:58:35;;;;;;;8.00;5.33;;;;;;;;;;5056135;28;20475;-74
2021/06/14 05:01:02;;;;;;;6.40;5.53;;;;;;;;;;5056113;28;20440;-73
2021/06/14 05:03:28;;;;;;;7.87;5.90;;;;;;;;;;5069466;28;20411;-75
2021/06/14 05:05:54;;;;;;;7.30;5.67;;;;;;;;;;5057595;28;20460;-74
2021/06/14 05:08:20;;;;;;;8.20;5.50;;;;;;;;;;5070555;28;20414;-75
2021/06/14 05:10:47;;;;;;;7.40;5.90;;;;;;;;;;5076446;28;20850;-74
2021/06/14 05:13:13;;;;;;;7.43;6.10;;;;;;;;;;5059286;28;20416;-75
2021/06/14 05:15:39;;;;;;;7.10;6.20;;;;;;;;;;5056420;28;20419;-74
2021/06/14 05:18:05;;;;;;;8.00;5.90;;;;;;;;;;5055845;28;20445;-74
2021/06/14 05:20:31;;;;;;;15.27;5.77;;;;;;;;;;5055995;28;20476;-74
2021/06/14 05:22:57;;;;;;;9.17;5.57;;;;;;;;;;5055396;28;20430;-75
2021/06/14 05:25:23;;;;;;;10.43;5.90;;;;;;;;;;5055812;28;20451;-75
2021/06/14 05:27:49;;;;;;;9.27;6.37;;;;;;;;;;5056755;28;20410;-73
2021/06/14 05:30:16;;;;;;;12.07;6.10;;;;;;;;;;5056083;28;20465;-74
2021/06/14 05:32:44;;;;;;;9.07;6.63;;;;;;;;;;5055363;28;20431;-74
2021/06/14 05:35:10;;;;;;;16.17;6.20;;;;;;;;;;5055599;28;20538;-77
2021/06/14 05:37:37;;;;;;;11.00;5.63;;;;;;;;;;5055226;28;20768;-73
2021/06/14 05:40:06;;;;;;;7.13;5.77;;;;;;;;;;5055591;28;20413;-76
2021/06/14 05:42:32;;;;;;;8.30;6.20;;;;;;;;;;5055257;28;20426;-74
2021/06/14 05:44:59;;;;;;;8.20;4.93;;;;;;;;;;5061819;28;20554;-75
2021/06/14 05:47:25;;;;;;;8.07;4.70;;;;;;;;;;5059206;28;20793;-75
2021/06/14 05:49:51;;;;;;;6.00;4.40;;;;;;;;;;5055413;28;20453;-74
2021/06/14 05:52:17;;;;;;;10.93;5.50;;;;;;;;;;5055075;28;20438;-75
2021/06/14 05:54:43;;;;;;;6.70;5.03;;;;;;;;;;5055042;28;20464;-76
2021/06/14 05:57:10;;;;;;;6.37;4.60;;;;;;;;;;5054880;28;20415;-75
2021/06/14 05:59:36;;;;;;;5.10;4.00;;;;;;;;;;5054791;28;20470;-75
2021/06/14 06:02:03;;;;;;;5.63;4.40;;;;;;;;;;5055128;28;20930;-75
2021/06/14 06:04:29;;;;;;;7.10;5.00;;;;;;;;;;5055072;28;20400;-75
2021/06/14 06:06:55;;;;;;;5.97;3.30;;;;;;;;;;5057343;28;20841;-74
2021/06/14 06:09:21;;;;;;;7.00;3.77;;;;;;;;;;5070313;28;20418;-75
2021/06/14 06:11:47;;;;;;;5.33;3.63;;;;;;;;;;5054714;28;20439;-72
2021/06/14 06:14:13;;;;;;;6.77;3.10;;;;;;;;;;5052865;28;20479;-76
2021/06/14 06:16:39;;;;;;;4.10;3.37;;;;;;;;;;5060497;28;20420;-76
2021/06/14 06:19:06;;;;;;;4.20;3.80;;;;;;;;;;5050932;28;20484;-72
2021/06/14 06:21:32;;;;;;;4.63;3.47;;;;;;;;;;5050791;28;20439;-72
2021/06/14 06:23:58;;;;;;;3.90;3.50;;;;;;;;;;5050753;28;20582;-73
2021/06/14 06:26:24;;;;;;;4.40;4.00;;;;;;;;;;5053436;28;20916;-72
2021/06/14 06:28:51;;;;;;;4.77;3.83;;;;;;;;;;5066504;28;20821;-72
2021/06/14 06:31:17;;;;;;;5.40;3.80;;;;;;;;;;5065213;28;20447;-74
2021/06/14 06:33:43;;;;;;;6.50;4.07;;;;;;;;;;5063266;28;20469;-70
2021/06/14 06:36:12;;;;;;;8.43;6.73;;;;;;;;;;5053328;28;20426;-74
2021/06/14 06:38:38;;;;;;;7.60;4.70;;;;;;;;;;5070563;28;20455;-73
2021/06/14 06:41:05;;;;;;;8.50;5.30;;;;;;;;;;5070463;28;20434;-74
2021/06/14 06:43:34;;;;;;;5.03;4.53;;;;;;;;;;5068363;28;20418;-70
2021/06/14 06:46:00;;;;;;;7.53;4.83;;;;;;;;;;5061263;28;20502;-71
2021/06/14 06:48:27;;;;;;;6.00;4.30;;;;;;;;;;5050272;28;20501;-76
2021/06/14 06:50:53;;;;;;;10.33;4.83;;;;;;;;;;5050727;28;20949;-71
2021/06/14 06:53:19;;;;;;;5.60;3.90;;;;;;;;;;5058254;28;20415;-72
2021/06/14 06:55:45;;;;;;;5.27;4.77;;;;;;;;;;5052889;28;20424;-72
2021/06/14 06:58:12;;;;;;;7.50;4.23;;;;;;;;;;5050094;28;20419;-74
2021/06/14 07:00:39;;;;;;;5.57;4.80;;;;;;;;;;5050404;28;20468;-73
2021/06/14 07:03:05;;;;;;;9.10;4.90;;;;;;;;;;5049897;28;20510;-72
2021/06/14 07:05:31;;;;;;;6.23;4.23;;;;;;;;;;5049669;28;20471;-72
2021/06/14 07:07:57;;;;;;;4.60;4.10;;;;;;;;;;5060837;28;20442;-74
2021/06/14 07:10:23;;;;;;;5.80;4.20;;;;;;;;;;5078399;28;20444;-73
2021/06/14 07:12:49;;;;;;;4.83;3.73;;;;;;;;;;5050464;28;20471;-71
2021/06/14 07:15:15;;;;;;;6.73;4.47;;;;;;;;;;5053070;28;20908;-75
2021/06/14 07:17:43;;;;;;;5.30;4.17;;;;;;;;;;5069595;28;20427;-71
2021/06/14 07:20:11;;;;;;;4.90;4.30;;;;;;;;;;5069557;28;20429;-73
2021/06/14 07:22:37;;;;;;;4.60;4.10;;;;;;;;;;5051250;28;20565;-74
2021/06/14 07:25:04;;;;;;;5.47;3.97;;;;;;;;;;5047808;28;20497;-74
2021/06/14 07:27:31;;;;;;;5.73;5.13;;;;;;;;;;5055966;28;20411;-71
2021/06/14 07:29:57;;;;;;;8.10;5.23;;;;;;;;;;5050939;28;20426;-73
2021/06/14 07:32:23;;;;;;;6.00;4.80;;;;;;;;;;5049486;28;20815;-70
2021/06/14 07:34:50;;;;;;;6.37;4.77;;;;;;;;;;5049049;28;20422;-74
2021/06/14 07:37:18;;;;;;;8.80;4.47;;;;;;;;;;5049342;28;20411;-71
2021/06/14 07:39:44;;;;;;;8.80;4.50;;;;;;;;;;5049123;28;20449;-72
2021/06/14 07:42:10;;;;;;;6.90;4.80;;;;;;;;;;5049409;28;20459;-72
2021/06/14 07:44:36;;;;;;;5.10;4.53;;;;;;;;;;5052524;28;20452;-74
2021/06/14 07:47:02;;;;;;;7.03;4.83;;;;;;;;;;5056688;28;20933;-73
2021/06/14 07:49:28;;;;;;;6.07;4.23;;;;;;;;;;5049043;28;20927;-73
2021/06/14 07:51:54;;;;;;;7.70;4.70;;;;;;;;;;5049631;28;20454;-73
2021/06/14 07:54:20;;;;;;;6.00;4.97;;;;;;;;;;5048732;28;20465;-71
2021/06/14 07:56:47;;;;;;;6.33;4.77;;;;;;;;;;5049286;28;20417;-71
2021/06/14 07:59:13;;;;;;;6.60;4.63;;;;;;;;;;5049086;28;20450;-73
2021/06/14 08:01:39;;;;;;;6.70;4.90;;;;;;;;;;5048960;28;20805;-72
2021/06/14 08:04:05;;;;;;;5.90;5.30;;;;;;;;;;5048877;28;20419;-73
2021/06/14 08:06:31;;;;;;;5.20;4.57;;;;;;;;;;5049125;28;20471;-71
2021/06/14 08:08:57;;;;;;;6.70;5.30;;;;;;;;;;5068391;28;20415;-73
2021/06/14 08:11:23;;;;;;;6.97;4.40;;;;;;;;;;5067661;28;20487;-74
2021/06/14 08:13:50;;;;;;;5.07;4.57;;;;;;;;;;5049058;28;20416;-73
2021/06/14 08:16:17;;;;;;;7.03;4.60;;;;;;;;;;5049003;28;20418;-74
2021/06/14 08:26:35;;;;;;;5.30;4.70;;;;;;;;;;5064503;28;21053;-71
2021/06/14 08:29:02;;;;;;;6.63;4.33;;;;;;;;;;5053522;28;20474;-72
2021/06/14 08:31:30;;;;;;;6.60;5.00;;;;;;;;;;5052813;28;21055;-75
2021/06/14 08:33:57;;;;;;;5.37;4.40;;;;;;;;;;5053259;28;20572;-75
2021/06/14 08:36:23;;;;;;;5.30;4.80;;;;;;;;;;5052906;28;20835;-75
2021/06/14 08:38:49;;;;;;;8.50;5.30;;;;;;;;;;5052606;28;20800;-73
2021/06/14 08:41:19;;;;;;;10.60;5.67;;;;;;;;;;5052458;28;20439;-74
2021/06/14 08:43:48;;;;;;;5.37;4.87;;;;;;;;;;5052518;28;20816;-74
2021/06/14 08:46:14;;;;;;;6.10;5.13;;;;;;;;;;5063377;28;20466;-74
2021/06/14 08:48:41;;;;;;;6.87;4.90;;;;;;;;;;5063386;28;20450;-74
2021/06/14 08:51:08;;;;;;;6.77;5.10;;;;;;;;;;5052760;28;20518;-73
2021/06/14 08:53:35;;;;;;;5.70;5.10;;;;;;;;;;5052448;28;20411;-71
2021/06/14 08:56:01;;;;;;;8.50;5.53;;;;;;;;;;5052887;28;20458;-72
2021/06/14 08:58:29;;;;;;;6.93;4.60;;;;;;;;;;5052457;28;20423;-75
2021/06/14 09:00:56;;;;;;;6.70;5.10;;;;;;;;;;5052429;28;20442;-75
2021/06/14 09:03:23;;;;;;;7.27;4.80;;;;;;;;;;5052201;28;20419;-74
2021/06/14 09:05:49;;;;;;;5.57;5.07;;;;;;;;;;5052058;28;20870;-71
2021/06/14 09:08:15;;;;;;;5.50;5.00;;;;;;;;;;5065641;28;20414;-73
2021/06/14 09:10:41;;;;;;;8.87;4.90;;;;;;;;;;5069208;28;20425;-71
2021/06/14 09:13:21;;;;;;;5.70;4.90;;;;;;;;;;5051856;28;20422;-70
2021/06/14 09:16:05;;;;;;;5.23;4.47;;;;;;;;;;5052314;28;20510;-70
2021/06/14 09:18:31;;;;;;;7.60;5.23;;;;;;;;;;5052093;28;20415;-73
2021/06/14 09:21:03;;;;;;;6.33;4.67;;;;;;;;;;5075612;28;20447;-71
2021/06/14 09:23:39;;;;;;;6.10;5.03;;;;;;;;;;5053446;28;20427;-73
2021/06/14 09:26:05;;;;;;;5.40;4.90;;;;;;;;;;5060495;28;20467;-73
2021/06/14 09:28:32;;;;;;;7.73;5.00;;;;;;;;;;5053053;28;20411;-72
2021/06/14 09:30:59;;;;;;;6.37;5.03;;;;;;;;;;5051636;28;20431;-75
2021/06/14 09:33:26;;;;;;;10.80;4.97;;;;;;;;;;5051876;28;20419;-72
2021/06/14 09:35:53;;;;;;;5.17;4.67;;;;;;;;;;5050954;28;20430;-72
2021/06/14 09:38:23;;;;;;;7.50;4.60;;;;;;;;;;5060717;28;20419;-73
2021/06/14 09:40:50;;;;;;;5.10;4.60;;;;;;;;;;5051543;28;20419;-72
2021/06/14 09:43:35;;;;;;;6.60;4.27;;;;;;;;;;5051697;28;20427;-69
2021/06/14 09:46:04;;;;;;;6.30;4.43;;;;;;;;;;5061437;28;20459;-72
2021/06/14 09:48:31;;;;;;;5.57;4.50;;;;;;;;;;5051252;28;20836;-74
2021/06/14 09:51:00;;;;;;;5.33;4.40;;;;;;;;;;5051432;28;20432;-71
2021/06/14 09:53:30;;;;;;;6.93;4.70;;;;;;;;;;5051575;28;20419;-69
2021/06/14 09:55:56;;;;;;;5.30;4.10;;;;;;;;;;5051247;28;20415;-73
2021/06/14 09:58:23;;;;;;;5.63;3.87;;;;;;;;;;5051151;28;20931;-74
2021/06/14 10:00:54;;;;;;;5.03;4.53;;;;;;;;;;5051086;28;20495;-73
2021/06/14 10:03:21;;;;;;;5.63;4.60;;;;;;;;;;5051308;28;20423;-72
2021/06/14 10:05:49;;;;;;;5.57;3.93;;;;;;;;;;5050951;28;20475;-75
2021/06/14 10:08:23;;;;;;;5.50;3.90;;;;;;;;;;5056791;28;20419;-72
2021/06/14 10:10:59;;;;;;;4.60;4.07;;;;;;;;;;5071246;28;20441;-72
2021/06/14 10:13:29;;;;;;;5.13;4.13;;;;;;;;;;5053934;28;20419;-73
2021/06/14 10:16:00;;;;;;;4.27;3.97;;;;;;;;;;5071009;28;20761;-75
2021/06/14 10:18:30;;;;;;;4.57;4.07;;;;;;;;;;5050792;28;20416;-74
2021/06/14 10:20:56;;;;;;;4.73;3.90;;;;;;;;;;5060851;28;20443;-74
2021/06/14 10:23:22;;;;;;;3.87;3.47;;;;;;;;;;5069526;28;20506;-72
2021/06/14 10:25:48;;;;;;;4.50;4.10;;;;;;;;;;5050604;28;20926;-73
2021/06/14 10:28:15;;;;;;;6.57;6.03;;;;;;;;;;5051807;28;20418;-74
2021/06/14 10:30:41;;;;;;;6.90;4.10;;;;;;;;;;5050942;28;20422;-71
2021/06/14 10:33:07;;;;;;;4.30;3.73;;;;;;;;;;5050317;28;20872;-74
2021/06/14 10:35:34;;;;;;;4.80;4.20;;;;;;;;;;5050661;28;20403;-72
2021/06/14 10:38:01;;;;;;;4.33;4.03;;;;;;;;;;5050268;28;20423;-69
2021/06/14 10:40:28;;;;;;;4.23;3.83;;;;;;;;;;5050556;28;20456;-71
2021/06/14 10:42:55;;;;;;;3.90;3.50;;;;;;;;;;5050127;28;20435;-73
2021/06/14 10:45:24;;;;;;;4.47;3.80;;;;;;;;;;5058888;28;20510;-74
2021/06/14 10:47:50;;;;;;;4.13;3.73;;;;;;;;;;5050671;28;20470;-74
2021/06/14 10:50:20;;;;;;;4.07;3.67;;;;;;;;;;5050321;28;20415;-74
2021/06/14 10:52:47;;;;;;;5.03;3.80;;;;;;;;;;5050021;28;20845;-74
2021/06/14 10:55:15;;;;;;;5.10;4.00;;;;;;;;;;5050668;28;20762;-73
2021/06/14 10:57:41;;;;;;;5.80;3.57;;;;;;;;;;5050091;28;20845;-72
2021/06/14 11:00:26;;;;;;;5.10;4.03;;;;;;;;;;5050349;28;20954;-74
2021/06/14 11:02:53;;;;;;;4.93;4.10;;;;;;;;;;5059080;28;20426;-72
2021/06/14 11:05:28;;;;;;;4.17;3.87;;;;;;;;;;5069999;28;20477;-74
2021/06/14 11:08:30;;;;;;;4.97;3.60;;;;;;;;;;5127269;27;20311;-70
2021/06/14 11:11:03;;;;;;;4.07;3.60;;;;;;;;;;5107567;28;20804;-72
2021/06/14 11:13:29;;;;;;;3.97;3.67;;;;;;;;;;5108235;27;20416;-73
2021/06/14 11:15:57;;;;;;;4.60;4.20;;;;;;;;;;5106967;28;20464;-74
2021/06/14 11:18:25;;;;;;;3.80;3.50;;;;;;;;;;5106779;28;20472;-76
2021/06/14 11:20:52;;;;;;;6.03;4.50;;;;;;;;;;5107008;28;20404;-71
2021/06/14 11:23:20;;;;;;;4.40;4.00;;;;;;;;;;5106771;28;20453;-71
2021/06/14 11:25:46;;;;;;;5.20;3.90;;;;;;;;;;5107052;28;20913;-74
2021/06/14 11:28:12;;;;;;;4.17;3.77;;;;;;;;;;5108076;28;20416;-71
2021/06/14 11:30:40;;;;;;;5.10;3.70;;;;;;;;;;5113077;27;21085;-74
2021/06/14 11:33:08;;;;;;;4.33;3.53;;;;;;;;;;5107671;27;20848;-69
2021/06/14 11:35:34;;;;;;;3.93;3.60;;;;;;;;;;5110624;28;20432;-73
2021/06/14 11:38:02;;;;;;;4.17;3.80;;;;;;;;;;5106146;28;20440;-72
2021/06/14 11:40:29;;;;;;;4.23;3.60;;;;;;;;;;5117888;28;20427;-73
2021/06/14 11:42:59;;;;;;;3.60;3.30;;;;;;;;;;5105992;28;20432;-74
2021/06/14 11:45:27;;;;;;;4.20;3.90;;;;;;;;;;5110061;28;20569;-74
2021/06/14 11:47:54;;;;;;;4.80;4.17;;;;;;;;;;5105964;28;20476;-71
2021/06/14 11:50:22;;;;;;;4.30;3.90;;;;;;;;;;5106265;28;20413;-71
2021/06/14 11:52:56;;;;;;;5.43;4.47;;;;;;;;;;5106237;28;20436;-73
2021/06/14 11:55:22;;;;;;;3.83;3.53;;;;;;;;;;5106270;28;20411;-72
2021/06/14 11:57:54;;;;;;;4.13;3.43;;;;;;;;;;5106088;28;20844;-72
2021/06/14 12:00:27;;;;;;;3.80;3.50;;;;;;;;;;5106205;28;20429;-72
2021/06/14 12:02:53;;;;;;;4.30;3.67;;;;;;;;;;5105969;28;20496;-73
2021/06/14 12:05:29;;;;;;;3.97;3.67;;;;;;;;;;5106166;28;20913;-72
2021/06/14 12:07:55;;;;;;;6.80;3.80;;;;;;;;;;5116798;27;20553;-75
2021/06/14 12:10:22;;;;;;;4.97;3.80;;;;;;;;;;5121195;27;20513;-70
2021/06/14 12:13:00;;;;;;;5.40;3.40;;;;;;;;;;5106989;28;20436;-71
2021/06/14 12:15:26;;;;;;;3.50;3.20;;;;;;;;;;5106284;28;20834;-70
2021/06/14 12:17:52;;;;;;;3.63;3.30;;;;;;;;;;5107851;27;20500;-71
2021/06/14 12:20:23;;;;;;;3.73;3.43;;;;;;;;;;5094301;28;20445;-70
2021/06/14 12:22:49;;;;;;;3.70;3.40;;;;;;;;;;5092180;28;20460;-75
2021/06/14 12:25:15;;;;;;;4.60;3.80;;;;;;;;;;5092138;28;20484;-70
2021/06/14 12:27:41;;;;;;;3.63;3.33;;;;;;;;;;5093182;28;20473;-74
2021/06/14 12:30:10;;;;;;;3.90;3.50;;;;;;;;;;5100872;28;20420;-72
2021/06/14 12:32:37;;;;;;;3.60;3.17;;;;;;;;;;5107087;28;20438;-71
2021/06/14 12:35:05;;;;;;;5.37;3.93;;;;;;;;;;5091747;28;21108;-73
2021/06/14 12:37:31;;;;;;;4.73;3.30;;;;;;;;;;5091934;28;20473;-73
2021/06/14 12:40:07;;;;;;;5.93;3.23;;;;;;;;;;5090547;28;20893;-72
2021/06/14 12:42:34;;;;;;;4.33;3.63;;;;;;;;;;5091791;28;20444;-73
2021/06/14 12:45:13;;;;;;;5.23;3.33;;;;;;;;;;5098562;28;20421;-72
2021/06/14 12:47:43;;;;;;;3.53;3.10;;;;;;;;;;5094289;28;20468;-73
2021/06/14 12:50:13;;;;;;;3.90;3.00;;;;;;;;;;5091740;28;20416;-71
2021/06/14 12:52:40;;;;;;;6.03;3.67;;;;;;;;;;5092307;28;20438;-70
2021/06/14 12:55:06;;;;;;;3.77;3.13;;;;;;;;;;5091572;28;20417;-74
2021/06/14 12:57:36;;;;;;;3.80;3.30;;;;;;;;;;5091805;28;20440;-72
2021/06/14 13:00:05;;;;;;;4.90;3.47;;;;;;;;;;5091323;28;20433;-70
2021/06/14 13:02:31;;;;;;;4.70;3.50;;;;;;;;;;5091745;28;20438;-72
2021/06/14 13:04:57;;;;;;;4.73;3.67;;;;;;;;;;5097780;28;20420;-74
2021/06/14 13:07:23;;;;;;;4.40;3.80;;;;;;;;;;5091220;28;20465;-70
2021/06/14 13:09:50;;;;;;;6.00;3.50;;;;;;;;;;5103179;28;20571;-73
2021/06/14 13:12:29;;;;;;;4.00;3.60;;;;;;;;;;5102574;27;20437;-71
2021/06/14 13:15:06;;;;;;;5.47;3.27;;;;;;;;;;5091003;28;20409;-70
2021/06/14 13:17:32;;;;;;;4.20;3.80;;;;;;;;;;5091091;28;20540;-73
2021/06/14 13:19:58;;;;;;;3.63;3.33;;;;;;;;;;5090909;28;20421;-72
2021/06/14 13:22:24;;;;;;;4.47;3.60;;;;;;;;;;5091229;28;20555;-70
2021/06/14 13:24:50;;;;;;;4.60;3.70;;;;;;;;;;5090866;28;21056;-70
2021/06/14 13:27:16;;;;;;;4.53;3.77;;;;;;;;;;5090959;28;20453;-72
2021/06/14 13:30:04;;;;;;;4.40;3.37;;;;;;;;;;5108059;28;20412;-70
2021/06/14 13:32:49;;;;;;;4.83;3.87;;;;;;;;;;5111253;28;20531;-73
2021/06/14 13:35:18;;;;;;;4.67;3.80;;;;;;;;;;5111079;28;20404;-72
2021/06/14 13:37:49;;;;;;;5.33;4.70;;;;;;;;;;5110791;28;20434;-73
2021/06/14 13:40:26;;;;;;;5.00;4.00;;;;;;;;;;5104220;28;20418;-72
2021/06/14 13:42:57;;;;;;;5.27;3.57;;;;;;;;;;5090336;28;20441;-72
2021/06/14 13:45:34;;;;;;;4.10;3.80;;;;;;;;;;5090599;28;20460;-75
2021/06/14 13:48:00;;;;;;;4.90;3.50;;;;;;;;;;5090076;28;20461;-71
2021/06/14 13:50:27;;;;;;;6.40;3.83;;;;;;;;;;5090366;28;20419;-71
2021/06/14 13:52:53;;;;;;;3.70;3.40;;;;;;;;;;5090195;28;20498;-73
2021/06/14 13:55:23;;;;;;;4.70;3.80;;;;;;;;;;5090532;28;20813;-70
2021/06/14 13:57:53;;;;;;;4.20;3.80;;;;;;;;;;5088599;28;20474;-72
2021/06/14 14:00:19;;;;;;;4.23;3.83;;;;;;;;;;5090108;28;20435;-69
2021/06/14 14:02:47;;;;;;;4.27;3.80;;;;;;;;;;5090072;28;20437;-71
2021/06/14 14:05:26;;;;;;;4.50;4.10;;;;;;;;;;5090198;28;20779;-75
2021/06/14 14:07:52;;;;;;;4.20;3.80;;;;;;;;;;5093310;28;20460;-71
2021/06/14 14:10:18;;;;;;;4.40;3.87;;;;;;;;;;5096196;27;20421;-70
2021/06/14 14:12:45;;;;;;;5.13;3.20;;;;;;;;;;5092181;28;20445;-74
2021/06/14 14:15:12;;;;;;;7.30;3.80;;;;;;;;;;5089975;28;20489;-73
2021/06/14 14:17:38;;;;;;;6.10;4.50;;;;;;;;;;5089806;28;20474;-74
2021/06/14 14:20:04;;;;;;;4.60;4.13;;;;;;;;;;5089532;28;20429;-71
2021/06/14 14:22:32;;;;;;;4.10;3.70;;;;;;;;;;5098198;28;20492;-74
2021/06/14 14:24:58;;;;;;;4.13;3.67;;;;;;;;;;5095039;28;20429;-72
2021/06/14 14:27:26;;;;;;;6.93;3.83;;;;;;;;;;5089860;28;20461;-73
2021/06/14 14:29:53;;;;;;;5.27;4.00;;;;;;;;;;5093758;28;20413;-71
2021/06/14 14:32:19;;;;;;;4.30;3.90;;;;;;;;;;5089792;28;21007;-71
2021/06/14 14:34:47;;;;;;;3.87;3.47;;;;;;;;;;5087996;28;20460;-71
2021/06/14 14:37:25;;;;;;;6.77;3.67;;;;;;;;;;5089605;28;20417;-74
2021/06/14 14:40:05;;;;;;;7.23;4.77;;;;;;;;;;5102011;28;20421;-73
2021/06/14 14:42:32;;;;;;;3.80;3.50;;;;;;;;;;5089317;28;20441;-74
2021/06/14 14:44:58;;;;;;;5.63;3.83;;;;;;;;;;5089388;28;20432;-72
2021/06/14 14:47:24;;;;;;;5.17;3.97;;;;;;;;;;5095880;28;20492;-74
2021/06/14 14:49:50;;;;;;;5.00;4.60;;;;;;;;;;5089309;28;20414;-70
2021/06/14 14:52:17;;;;;;;4.20;3.80;;;;;;;;;;5089254;28;20430;-74
2021/06/14 14:54:43;;;;;;;4.03;3.63;;;;;;;;;;5089220;28;20424;-74